Oriental, NC (28571)

9:33 AM EDT on October 31, 2014 (GMT -0400)
Oriental, NC | Change Station
CLOSE
Current Station
Personal Weather Station
Location: Oriental, NC
Elevation: 13 ft
Nearby Weather Stations

Elev 13 ft 35.03 °N, 76.70 °W | Updated 7 minutes ago

Mostly Cloudy
Mostly Cloudy
57.5 °F
Feels Like 57.5 °F
N
0.9
Wind Variable Wind from North

Today
High -- | Low -- °F
--% Chance of Precip.
Yesterday
High -- | Low -- °F
Precip. -- in
7:26 AM 6:13 PM
First Quarter, 55% visible
Pressure 29.88 in
Visibility 7.0 miles
Clouds Few 12000 ft
Dew Point 51 °F
Humidity 78%
Rainfall -999.00 in
Snow Depth Not available.
UV 1 out of 12
Pollen .90 out of 12
Air Quality Not available.
Flu Activity Not available.
METAR KNBT 311256Z AUTO 02014G23KT 7SM FEW120 17/08 A2987 RMK AO2 SLP119 T01720083 PNO

More Conditions Fewer Conditions

Pressure 29.88 in
Visibility 7.0 miles
Clouds Few 12000 ft
Dew Point 51 °F
Humidity 78%
Rainfall -999.00 in
Snow Depth Not available.
UV 1 out of 12
Pollen .90 out of 12
Air Quality Not available.
Flu Activity Not available.
METAR KNBT 311256Z AUTO 02014G23KT 7SM FEW120 17/08 A2987 RMK AO2 SLP119 T01720083 PNO

More Conditions Fewer Conditions

10-Day Weather Forecast

Almanac

Astronomy

Oct. 31, 2014 Rise Set
Actual Time
Civil Twilight
Nautical Twilight
Astronomical Twilight
Moon
Length of Visible Light
Length of Day
Tomorrow will be .
, % of the Moon is Illuminated

Today's Extremes

State Highs State Lows

Community

WunderPhotos

Upload Photos

1,766,610 photos uploaded!

WunderBlogs® & News

Nearby

Air Quality

  Air Quality AQ Index Pollutant
Not available.

Snow Depth

Station Depth Elevation

Earthquake Activity

City Distance Mag. Time & Date
Minimum magnitude displayed is 2.5.

Coastal Water Temperatures

Place Temperature

Nearby Weather Stations